Bertoua Airport


Codes: FKKO/BTA
Name: Bertoua Airport
City: Bertoua
Country: Cameroon
Elevation: 2133 ft.

Photos at Bertoua Airport


   Photos courtesy of SpottingLog. You can add your own sightings and photos by signing up for a free trial today.



No photos found.

Weather at Bertoua Airport


Time (UTC)DescriptionTempratureWindCloud coverageVisibilityPressureHumidity
25-Jun-2024 21:00Light Rain20°C2 mph, SW35%10000m1012hPa94%
26-Jun-2024 00:00Light Rain20°C0 mph, W34%10000m1012hPa95%
26-Jun-2024 03:00Light Rain20°C2 mph, W51%10000m1012hPa98%
26-Jun-2024 06:00Broken Clouds20°C2 mph, NW75%10000m1013hPa97%
26-Jun-2024 09:00Light Rain27°C2 mph, W43%10000m1013hPa67%
26-Jun-2024 12:00Moderate Rain27°C2 mph, N34%10000m1010hPa75%
26-Jun-2024 15:00Moderate Rain25°C2 mph, S100%10000m1009hPa85%
26-Jun-2024 18:00Light Rain22°C0 mph, NW99%10000m1011hPa93%
26-Jun-2024 21:00Light Rain21°C2 mph, W97%10000m1012hPa96%
27-Jun-2024 00:00Light Rain20°C4 mph, NW98%10000m1011hPa98%
27-Jun-2024 03:00Light Rain20°C2 mph, NW100%7647m1012hPa99%
27-Jun-2024 06:00Moderate Rain20°C2 mph, SW99%4026m1013hPa99%
27-Jun-2024 09:00Light Rain23°C4 mph, SW99%10000m1014hPa88%
27-Jun-2024 12:00Light Rain22°C4 mph, SW97%10000m1012hPa92%
27-Jun-2024 15:00Light Rain26°C4 mph, SW96%10000m1010hPa71%
27-Jun-2024 18:00Overcast Clouds21°C2 mph, SW86%10000m1011hPa94%
27-Jun-2024 21:00Light Rain20°C2 mph, SW91%10000m1013hPa97%
28-Jun-2024 00:00Light Rain20°C4 mph, SW94%10000m1013hPa96%
28-Jun-2024 03:00Overcast Clouds19°C4 mph, W100%10000m1013hPa99%
28-Jun-2024 06:00Overcast Clouds20°C4 mph, NW85%10000m1013hPa95%
28-Jun-2024 09:00Broken Clouds27°C4 mph, W76%10000m1013hPa63%
28-Jun-2024 12:00Broken Clouds30°C4 mph, W55%10000m1010hPa50%
28-Jun-2024 15:00Light Rain26°C0 mph, NE100%10000m1009hPa82%
28-Jun-2024 18:00Light Rain22°C2 mph, W100%10000m1011hPa92%
28-Jun-2024 21:00Moderate Rain20°C2 mph, NE100%4769m1015hPa99%
29-Jun-2024 00:00Light Rain21°C0 mph, SW100%10000m1013hPa99%
29-Jun-2024 03:00Light Rain20°C4 mph, SW100%10000m1013hPa99%
29-Jun-2024 06:00Light Rain19°C4 mph, NW100%10000m1014hPa98%
29-Jun-2024 09:00Broken Clouds24°C4 mph, NW84%10000m1014hPa74%
29-Jun-2024 12:00Broken Clouds29°C2 mph, W76%10000m1011hPa55%
29-Jun-2024 15:00Light Rain25°C2 mph, N62%10000m1011hPa83%
29-Jun-2024 18:00Light Rain21°C2 mph, W80%10000m1013hPa94%
29-Jun-2024 21:00Light Rain20°C2 mph, W85%10000m1014hPa98%
30-Jun-2024 00:00Overcast Clouds20°C2 mph, W93%10000m1014hPa98%
30-Jun-2024 03:00Light Rain20°C4 mph, W100%10000m1013hPa99%
30-Jun-2024 06:00Overcast Clouds20°C2 mph, W100%10000m1015hPa98%
30-Jun-2024 09:00Broken Clouds26°C4 mph, SW71%10000m1015hPa70%
30-Jun-2024 12:00Light Rain27°C4 mph, SW79%10000m1012hPa72%
30-Jun-2024 15:00Light Rain27°C2 mph, NW86%10000m1010hPa69%
30-Jun-2024 18:00Light Rain22°C4 mph, NW86%10000m1012hPa94%